Terminal Aerodrome Forecast
Issued by NWS

Home | Current Version | Previous Version | Text Only | Print | Product List | Glossary Off
Versions: 1 2 3 4 5 6 7 8 9 10 11 12 13 14 15 16 17

000
FTUS43 KIWX 151100
TAFSBN
TAF
KSBN 151130Z 1512/1612 17005KT P6SM VCTS SCT060CB BKN080
      TEMPO 1512/1514 -SHRA BKN060
     FM151500 20008KT P6SM BKN050
     FM151700 25008KT P6SM -RA OVC040
     FM152100 31008KT 6SM -RA BR OVC020
      TEMPO 1522/1601 4SM -RA BR OVC010
     FM160500 33003KT 6SM BR SCT020=

USA.gov is the U.S. government's official web portal to all federal, state and local government web resources and services.